Hartline, Washington
Current Conditions -  °F | °C
As of 7:53 PM on Friday 19 Dec 2014 (Local Time) from KEPH Reporting Station
Haze Haze  
Wind Chill: 31°   Ceiling: Unl
Heat Index: 31°   Visibility: 3mi
Dew Point: 30°   Wind: 0mph
Humidity: 96%   Direction: NA
Pressure: 29.98"   Gusts: NA
Location:  47.69°N, 119.11°W
Report Text: KEPH 200353Z AUTO 00000KT 3SM BR CLR M01/M01 A2998 RMK AO2 SLP164 T10061011
Loading
Personal Weather Stations






























Interactive Weather Map New forecast layout! Learn more

10-Day Weather Forecast

Advertisements
Track Severe Weather on mobile